Time;durP1;ratioP1;P1;durP2;ratioP2;P2;SDS_P1;SDS_P2;PMS_P1;PMS_P2;Temp;Humidity;BMP_temperature;BMP_pressure;BME280_temperature;BME280_humidity;BME280_pressure;Samples;Min_cycle;Max_cycle;Signal;HPM_P1;HPM_P2
2024/01/05 00:01:34;;;;;;;27.15;13.20;;;5.50;99.90;;;;;;5045786;28;20044;-74
2024/01/05 00:04:00;;;;;;;29.27;13.05;;;5.50;99.90;;;;;;5050519;28;20502;-74
2024/01/05 00:06:30;;;;;;;23.45;12.27;;;5.50;99.90;;;;;;5031675;28;20033;-74
2024/01/05 00:08:56;;;;;;;27.42;11.80;;;6.00;99.90;;;;;;5050976;28;20047;-74
2024/01/05 00:11:22;;;;;;;25.30;12.45;;;5.50;99.90;;;;;;5048536;28;20041;-74
2024/01/05 00:13:48;;;;;;;24.27;12.65;;;5.50;99.90;;;;;;5044670;28;20069;-74
2024/01/05 00:16:17;;;;;;;29.25;12.63;;;5.50;99.90;;;;;;5028370;28;20049;-74
2024/01/05 00:18:43;;;;;;;26.20;11.63;;;5.50;99.90;;;;;;5042496;28;20500;-74
2024/01/05 00:21:09;;;;;;;21.77;11.40;;;5.50;99.90;;;;;;5039845;28;20029;-75
2024/01/05 00:23:34;;;;;;;23.55;10.98;;;5.50;99.90;;;;;;5042703;28;20542;-74
2024/01/05 00:26:03;;;;;;;23.33;11.25;;;5.50;99.90;;;;;;5050888;28;20518;-75
2024/01/05 00:28:32;;;;;;;20.10;10.55;;;5.50;99.90;;;;;;5050646;28;20068;-75
2024/01/05 00:30:59;;;;;;;24.45;10.77;;;5.50;99.90;;;;;;5044440;28;20500;-74
2024/01/05 00:33:25;;;;;;;21.42;10.55;;;5.50;99.90;;;;;;5048816;28;20055;-74
2024/01/05 00:35:51;;;;;;;18.73;10.43;;;5.50;99.90;;;;;;5049281;28;20043;-75
2024/01/05 00:38:16;;;;;;;15.65;9.43;;;5.50;99.90;;;;;;5045381;28;20044;-74
2024/01/05 00:40:42;;;;;;;18.63;10.13;;;5.50;99.90;;;;;;5048451;28;20406;-74
2024/01/05 00:43:11;;;;;;;19.25;10.48;;;5.50;99.90;;;;;;5049864;28;20037;-75
2024/01/05 00:45:37;;;;;;;18.42;9.85;;;5.50;99.90;;;;;;5048856;28;20495;-75
2024/01/05 00:48:03;;;;;;;17.30;9.15;;;5.50;99.90;;;;;;5047978;28;20047;-74
2024/01/05 00:50:30;;;;;;;17.23;9.82;;;5.40;99.90;;;;;;5051099;28;20131;-74
2024/01/05 00:52:56;;;;;;;19.13;8.77;;;5.40;99.90;;;;;;5016848;28;20456;-74
2024/01/05 00:55:24;;;;;;;16.80;9.55;;;5.40;99.90;;;;;;5036614;28;20123;-74
2024/01/05 00:57:52;;;;;;;15.13;8.90;;;5.40;99.90;;;;;;5053435;28;20029;-75
2024/01/05 01:00:19;;;;;;;17.25;9.13;;;5.40;99.90;;;;;;5053550;28;20040;-75
2024/01/05 01:02:45;;;;;;;15.88;9.00;;;5.40;99.90;;;;;;5052246;28;20036;-75
2024/01/05 01:05:10;;;;;;;20.35;9.40;;;5.50;99.90;;;;;;5052864;28;20032;-75
2024/01/05 01:07:37;;;;;;;18.70;9.70;;;5.40;99.90;;;;;;5051142;28;20552;-75
2024/01/05 01:10:05;;;;;;;20.13;8.40;;;5.30;99.90;;;;;;5044020;28;20587;-75
2024/01/05 01:12:31;;;;;;;17.00;9.55;;;5.40;99.90;;;;;;5035776;28;20076;-74
2024/01/05 01:14:56;;;;;;;17.02;9.10;;;5.40;99.90;;;;;;5053274;28;20110;-74
2024/01/05 01:17:22;;;;;;;19.10;9.60;;;5.40;99.90;;;;;;5054212;28;20084;-74
2024/01/05 01:19:49;;;;;;;21.98;9.80;;;5.40;99.90;;;;;;5052260;28;20044;-74
2024/01/05 01:22:15;;;;;;;17.55;9.48;;;5.40;99.90;;;;;;5036291;28;20047;-74
2024/01/05 01:24:41;;;;;;;21.60;9.65;;;5.30;99.90;;;;;;5053571;28;20151;-74
2024/01/05 01:27:06;;;;;;;18.17;8.50;;;5.40;99.90;;;;;;5053715;28;20534;-75
2024/01/05 01:29:33;;;;;;;17.27;9.02;;;5.30;99.90;;;;;;5035866;28;20037;-75
2024/01/05 01:31:59;;;;;;;17.25;9.48;;;5.30;99.90;;;;;;5054183;28;20080;-74
2024/01/05 01:34:24;;;;;;;18.85;8.95;;;5.30;99.90;;;;;;5054145;28;20442;-74
2024/01/05 01:36:51;;;;;;;17.20;9.23;;;5.30;99.90;;;;;;5053444;28;20036;-74
2024/01/05 01:39:17;;;;;;;20.73;9.60;;;5.30;99.90;;;;;;5051677;28;20041;-74
2024/01/05 01:41:53;;;;;;;17.15;9.48;;;5.30;99.90;;;;;;5053073;28;20032;-75
2024/01/05 01:44:19;;;;;;;19.40;9.63;;;5.30;99.90;;;;;;5053642;28;20049;-75
2024/01/05 01:46:46;;;;;;;17.15;9.00;;;5.20;99.90;;;;;;5052183;28;20040;-75
2024/01/05 01:49:12;;;;;;;16.23;9.07;;;5.30;99.90;;;;;;5048550;28;20074;-74
2024/01/05 01:51:40;;;;;;;18.92;9.80;;;5.30;99.90;;;;;;5052158;28;20056;-74
2024/01/05 01:54:06;;;;;;;14.95;9.23;;;5.30;99.90;;;;;;5052482;28;20033;-74
2024/01/05 01:56:33;;;;;;;16.17;8.65;;;5.30;99.90;;;;;;5052173;28;20037;-74
2024/01/05 01:58:59;;;;;;;16.42;9.27;;;5.30;99.90;;;;;;5035313;28;20047;-74
2024/01/05 02:01:27;;;;;;;19.55;9.40;;;5.30;99.90;;;;;;5049942;28;20028;-74
2024/01/05 02:03:53;;;;;;;16.05;9.20;;;5.30;99.90;;;;;;5035187;28;20119;-74
2024/01/05 02:06:20;;;;;;;18.25;9.30;;;5.20;99.90;;;;;;5051818;28;20251;-74
2024/01/05 02:08:47;;;;;;;17.23;9.20;;;5.30;99.90;;;;;;5053336;28;20032;-74
2024/01/05 02:11:13;;;;;;;16.85;9.27;;;5.20;99.90;;;;;;5047860;28;20043;-74
2024/01/05 02:13:40;;;;;;;15.07;9.23;;;5.30;99.90;;;;;;5048586;28;20069;-74
2024/01/05 02:16:06;;;;;;;18.42;9.50;;;5.30;99.90;;;;;;5031044;28;20029;-74
2024/01/05 02:18:37;;;;;;;16.98;9.02;;;5.20;99.90;;;;;;5052020;28;20484;-74
2024/01/05 02:21:05;;;;;;;20.67;9.75;;;5.20;99.90;;;;;;5030816;28;20029;-74
2024/01/05 02:23:33;;;;;;;16.30;8.50;;;5.20;99.90;;;;;;5052501;28;20049;-74
2024/01/05 02:26:00;;;;;;;16.15;9.30;;;5.90;99.90;;;;;;5049269;28;20037;-74
2024/01/05 02:28:26;;;;;;;16.30;9.13;;;5.20;99.90;;;;;;5050979;28;20047;-74
2024/01/05 02:30:56;;;;;;;16.55;9.40;;;5.20;99.90;;;;;;5054520;28;20033;-75
2024/01/05 02:33:23;;;;;;;16.38;8.60;;;5.20;99.90;;;;;;5051346;28;20128;-75
2024/01/05 02:35:50;;;;;;;15.70;8.52;;;5.20;99.90;;;;;;5045596;28;20055;-75
2024/01/05 02:38:17;;;;;;;14.82;8.77;;;5.20;99.90;;;;;;5047652;28;20048;-75
2024/01/05 02:40:47;;;;;;;18.75;9.35;;;5.20;99.90;;;;;;5026725;28;20079;-75
2024/01/05 02:43:12;;;;;;;18.60;9.50;;;5.20;99.90;;;;;;5046402;28;20049;-75
2024/01/05 02:45:39;;;;;;;16.92;9.05;;;5.70;99.90;;;;;;5033969;28;20040;-75
2024/01/05 02:48:06;;;;;;;14.38;8.85;;;5.20;99.90;;;;;;5043740;28;20246;-75
2024/01/05 02:50:32;;;;;;;16.17;9.05;;;5.20;99.90;;;;;;5034310;28;20052;-75
2024/01/05 02:52:57;;;;;;;15.88;8.73;;;5.20;99.90;;;;;;5048140;28;20041;-74
2024/01/05 02:55:23;;;;;;;14.68;8.70;;;5.20;99.90;;;;;;5043675;28;20048;-75
2024/01/05 02:57:48;;;;;;;15.90;9.23;;;5.20;99.90;;;;;;5042493;28;20036;-75
2024/01/05 03:00:15;;;;;;;16.00;9.02;;;5.10;99.90;;;;;;5048439;28;20045;-75
2024/01/05 03:02:41;;;;;;;15.02;8.85;;;5.20;99.90;;;;;;5030909;28;20044;-74
2024/01/05 03:05:07;;;;;;;15.82;8.77;;;5.20;99.90;;;;;;5050723;28;20041;-74
2024/01/05 03:07:33;;;;;;;17.60;9.02;;;5.20;99.90;;;;;;5033686;28;20053;-75
2024/01/05 03:09:59;;;;;;;16.38;9.43;;;5.20;99.90;;;;;;5027573;28;20047;-74
2024/01/05 03:12:24;;;;;;;15.52;9.50;;;5.20;99.90;;;;;;5050196;28;20059;-74
2024/01/05 03:14:50;;;;;;;17.52;9.30;;;5.10;99.90;;;;;;5046104;28;20029;-75
2024/01/05 03:17:15;;;;;;;16.85;9.30;;;5.20;99.90;;;;;;5046964;28;20056;-74
2024/01/05 03:19:41;;;;;;;15.20;9.52;;;5.20;99.90;;;;;;5045918;28;20037;-74
2024/01/05 03:22:10;;;;;;;15.68;9.15;;;5.20;99.90;;;;;;5049761;28;20075;-74
2024/01/05 03:24:36;;;;;;;16.73;9.77;;;6.20;99.90;;;;;;5050654;28;20797;-75
2024/01/05 03:27:03;;;;;;;19.23;10.38;;;5.30;99.90;;;;;;5048350;28;20491;-75
2024/01/05 03:29:29;;;;;;;16.38;10.20;;;5.30;99.90;;;;;;5051558;28;20505;-75
2024/01/05 03:31:54;;;;;;;16.35;10.05;;;5.30;99.90;;;;;;5066918;28;20037;-74
2024/01/05 03:34:20;;;;;;;17.60;10.23;;;5.30;99.90;;;;;;5050797;28;20043;-74
2024/01/05 03:36:45;;;;;;;15.48;9.63;;;5.30;99.90;;;;;;5032803;28;20037;-74
2024/01/05 03:39:11;;;;;;;15.75;9.65;;;5.30;99.90;;;;;;5049351;28;20037;-74
2024/01/05 03:41:38;;;;;;;14.95;9.88;;;5.30;99.90;;;;;;5049020;28;20041;-75
2024/01/05 03:44:04;;;;;;;16.33;10.00;;;5.40;99.90;;;;;;5050802;28;20511;-75
2024/01/05 03:46:31;;;;;;;16.35;10.55;;;5.30;99.90;;;;;;5047258;28;20080;-75
2024/01/05 03:48:57;;;;;;;18.45;10.50;;;5.40;99.90;;;;;;5032870;28;20041;-75
2024/01/05 03:51:22;;;;;;;16.67;11.38;;;5.30;99.90;;;;;;5050497;28;20037;-75
2024/01/05 03:53:48;;;;;;;20.40;11.98;;;5.30;99.90;;;;;;5047662;28;20108;-75
2024/01/05 03:56:13;;;;;;;18.35;10.82;;;5.30;99.90;;;;;;5047138;28;20041;-75
2024/01/05 03:58:39;;;;;;;18.88;11.20;;;5.30;99.90;;;;;;5050072;28;20035;-75
2024/01/05 04:01:05;;;;;;;17.88;11.60;;;5.30;99.90;;;;;;5047591;28;20037;-75
2024/01/05 04:03:33;;;;;;;18.98;11.45;;;5.80;99.90;;;;;;5051168;28;20579;-75
2024/01/05 04:05:59;;;;;;;18.55;11.77;;;5.80;99.90;;;;;;5032870;28;20033;-75
2024/01/05 04:08:25;;;;;;;18.50;12.50;;;5.40;99.90;;;;;;5041898;28;20052;-75
2024/01/05 04:10:51;;;;;;;22.48;12.70;;;5.40;99.90;;;;;;5051720;28;20037;-75
2024/01/05 04:13:16;;;;;;;21.67;13.27;;;5.40;99.90;;;;;;5065203;28;21373;-75
2024/01/05 04:15:42;;;;;;;20.23;13.43;;;5.40;99.90;;;;;;5042885;28;20025;-75
2024/01/05 04:18:07;;;;;;;26.15;14.40;;;5.70;99.90;;;;;;5045909;28;20055;-75
2024/01/05 04:20:33;;;;;;;22.15;13.45;;;6.30;99.90;;;;;;5042399;28;20395;-75
2024/01/05 04:23:00;;;;;;;22.58;14.15;;;5.00;99.90;;;;;;5045643;28;20068;-75
2024/01/05 04:25:26;;;;;;;22.73;13.90;;;5.40;99.90;;;;;;5046637;28;20040;-75
2024/01/05 04:27:53;;;;;;;27.35;14.10;;;5.40;99.90;;;;;;5048026;28;20515;-75
2024/01/05 04:30:21;;;;;;;22.38;13.98;;;5.40;99.90;;;;;;5049783;28;20041;-74
2024/01/05 04:32:46;;;;;;;25.13;15.07;;;5.40;99.90;;;;;;5041547;28;20040;-74
2024/01/05 04:35:12;;;;;;;22.52;14.82;;;5.40;99.90;;;;;;5030802;28;20044;-75
2024/01/05 04:37:38;;;;;;;25.67;15.43;;;5.40;99.90;;;;;;5025847;28;20495;-74
2024/01/05 04:40:06;;;;;;;27.88;16.45;;;5.40;99.90;;;;;;5048456;28;20029;-74
2024/01/05 04:42:32;;;;;;;24.70;16.05;;;5.40;99.90;;;;;;5044104;28;20407;-74
2024/01/05 04:44:58;;;;;;;26.00;15.65;;;5.40;99.90;;;;;;5049225;28;20044;-75
2024/01/05 04:47:23;;;;;;;24.90;15.68;;;6.50;99.90;;;;;;5031647;28;20575;-75
2024/01/05 04:49:49;;;;;;;23.45;15.05;;;5.40;99.90;;;;;;5043894;28;20590;-75
2024/01/05 04:52:15;;;;;;;24.30;14.80;;;5.40;99.90;;;;;;5048497;28;20045;-74
2024/01/05 04:54:41;;;;;;;24.67;14.98;;;5.50;99.90;;;;;;5047016;28;20064;-75
2024/01/05 04:57:07;;;;;;;25.92;15.32;;;6.50;99.90;;;;;;5047773;28;20064;-74
2024/01/05 04:59:32;;;;;;;25.63;15.88;;;5.50;99.90;;;;;;5050483;28;20569;-74
2024/01/05 05:02:00;;;;;;;27.50;15.80;;;5.50;99.90;;;;;;5050828;28;20561;-74
2024/01/05 05:04:25;;;;;;;23.63;15.40;;;5.50;99.90;;;;;;5049253;28;20091;-74
2024/01/05 05:06:51;;;;;;;24.98;15.32;;;5.50;99.90;;;;;;5043249;28;20037;-74
2024/01/05 05:09:20;;;;;;;23.35;15.15;;;5.40;99.90;;;;;;5044790;28;20047;-75
2024/01/05 05:11:46;;;;;;;24.10;15.18;;;6.30;99.90;;;;;;5044728;28;20034;-74
2024/01/05 05:14:13;;;;;;;23.98;15.38;;;5.50;99.90;;;;;;5045027;28;20041;-74
2024/01/05 05:16:40;;;;;;;27.73;16.27;;;5.50;99.90;;;;;;5042351;28;20506;-74
2024/01/05 05:19:05;;;;;;;28.55;16.83;;;5.40;99.90;;;;;;5044940;28;20549;-74
2024/01/05 05:21:32;;;;;;;28.80;16.67;;;5.50;99.90;;;;;;5048875;28;20040;-74
2024/01/05 05:23:59;;;;;;;25.70;17.13;;;5.50;99.90;;;;;;5031112;28;20038;-74
2024/01/05 05:26:25;;;;;;;31.30;18.02;;;5.50;99.90;;;;;;5032438;28;20403;-75
2024/01/05 05:28:51;;;;;;;27.05;16.40;;;5.50;99.90;;;;;;5039174;22;20117;-79
2024/01/05 05:31:17;;;;;;;25.75;15.43;;;5.50;99.90;;;;;;4999739;28;20075;-79
2024/01/05 05:33:42;;;;;;;26.13;16.42;;;5.60;99.90;;;;;;4996863;28;20066;-78
2024/01/05 05:36:08;;;;;;;27.75;17.70;;;5.50;99.90;;;;;;5006847;28;20073;-78
2024/01/05 05:38:33;;;;;;;29.15;16.90;;;5.60;99.90;;;;;;5004269;28;20037;-79
2024/01/05 05:40:59;;;;;;;27.27;17.80;;;5.60;99.90;;;;;;4998851;28;20038;-79
2024/01/05 05:43:24;;;;;;;30.48;18.20;;;5.60;99.90;;;;;;5000568;28;20048;-79
2024/01/05 05:45:50;;;;;;;29.05;17.90;;;5.60;99.90;;;;;;5008229;28;20046;-78
2024/01/05 05:48:15;;;;;;;35.45;18.20;;;5.60;99.90;;;;;;4996443;28;20095;-79
2024/01/05 05:50:41;;;;;;;29.50;17.85;;;5.60;99.90;;;;;;5009712;28;20055;-78
2024/01/05 05:53:08;;;;;;;29.30;17.30;;;5.60;99.90;;;;;;5000591;28;20034;-78
2024/01/05 05:55:33;;;;;;;32.28;18.23;;;5.60;99.90;;;;;;4997571;28;20041;-79
2024/01/05 05:57:59;;;;;;;31.60;18.38;;;5.60;99.90;;;;;;5005023;28;20518;-79
2024/01/05 06:00:25;;;;;;;27.70;17.27;;;5.60;99.90;;;;;;4995199;28;20101;-78
2024/01/05 06:02:50;;;;;;;29.83;17.63;;;5.60;99.90;;;;;;5006287;28;20042;-78
2024/01/05 06:05:16;;;;;;;25.17;16.92;;;5.60;99.90;;;;;;4997412;28;20129;-78
2024/01/05 06:07:41;;;;;;;25.85;16.50;;;5.60;99.90;;;;;;4999905;28;20080;-78
2024/01/05 06:10:07;;;;;;;27.38;17.50;;;5.60;99.90;;;;;;5005002;28;20503;-79
2024/01/05 06:12:33;;;;;;;29.95;18.02;;;5.60;99.90;;;;;;4992461;28;20097;-79
2024/01/05 06:14:59;;;;;;;28.88;17.67;;;5.70;99.90;;;;;;5005537;28;20042;-78
2024/01/05 06:17:24;;;;;;;33.97;17.83;;;5.60;99.90;;;;;;5021378;28;20046;-78
2024/01/05 06:19:50;;;;;;;29.40;17.85;;;5.70;99.90;;;;;;5008462;28;20042;-78
2024/01/05 06:22:16;;;;;;;28.08;17.52;;;5.70;99.90;;;;;;5007127;28;20045;-78
2024/01/05 06:24:44;;;;;;;30.25;18.27;;;5.70;99.90;;;;;;4998326;28;20121;-79
2024/01/05 06:27:11;;;;;;;27.67;16.65;;;5.70;99.90;;;;;;5014990;28;20045;-79
2024/01/05 06:29:36;;;;;;;30.00;16.52;;;5.70;99.90;;;;;;5001447;28;20042;-79
2024/01/05 06:32:02;;;;;;;30.52;17.23;;;5.70;99.90;;;;;;5013544;28;20459;-78
2024/01/05 06:34:28;;;;;;;25.88;16.45;;;5.60;99.90;;;;;;5009779;28;20073;-77
2024/01/05 06:36:54;;;;;;;29.92;16.75;;;5.70;99.90;;;;;;5000845;28;20045;-78
2024/01/05 06:39:19;;;;;;;27.42;16.80;;;5.70;99.90;;;;;;5002372;28;20041;-78
2024/01/05 06:41:45;;;;;;;30.48;17.10;;;5.70;99.90;;;;;;5007104;28;20176;-78
2024/01/05 06:44:10;;;;;;;27.38;17.08;;;5.70;99.90;;;;;;5017998;28;20102;-78
2024/01/05 06:46:36;;;;;;;27.48;16.83;;;5.70;99.90;;;;;;5023180;28;20474;-79
2024/01/05 06:49:01;;;;;;;31.38;17.08;;;5.70;99.90;;;;;;5014828;28;20526;-79
2024/01/05 06:51:35;;;;;;;26.75;16.02;;;5.70;99.90;;;;;;5003828;28;20050;-79
2024/01/05 06:54:01;;;;;;;29.70;16.42;;;5.70;99.90;;;;;;5003906;28;20060;-78
2024/01/05 06:56:31;;;;;;;31.08;17.40;;;5.70;99.90;;;;;;5002408;28;20034;-78
2024/01/05 06:58:57;;;;;;;32.67;17.10;;;5.70;99.90;;;;;;5003298;28;20046;-79
2024/01/05 07:01:22;;;;;;;32.53;16.77;;;5.80;99.90;;;;;;5010969;28;20038;-78
2024/01/05 07:03:48;;;;;;;32.42;16.92;;;5.80;99.90;;;;;;5004100;28;20073;-78
2024/01/05 07:06:14;;;;;;;31.05;16.75;;;5.80;99.90;;;;;;5003918;28;20141;-78
2024/01/05 07:08:40;;;;;;;31.20;16.80;;;5.80;99.90;;;;;;4994504;28;20129;-79
2024/01/05 07:11:06;;;;;;;32.50;16.77;;;5.80;99.90;;;;;;5002714;28;20042;-78
2024/01/05 07:13:34;;;;;;;27.55;16.95;;;5.80;99.90;;;;;;5018172;28;20050;-78
2024/01/05 07:16:00;;;;;;;28.92;17.20;;;5.80;99.90;;;;;;5001949;28;20042;-79
2024/01/05 07:18:25;;;;;;;29.55;17.63;;;5.80;99.90;;;;;;5015770;28;20041;-78
2024/01/05 07:20:54;;;;;;;26.83;16.60;;;5.80;99.90;;;;;;4993880;28;20030;-77
2024/01/05 07:23:19;;;;;;;30.00;15.85;;;5.90;99.90;;;;;;4999535;28;20061;-78
2024/01/05 07:25:45;;;;;;;27.60;16.35;;;5.90;99.90;;;;;;4998894;28;20042;-78
2024/01/05 07:28:11;;;;;;;30.70;16.63;;;5.90;99.90;;;;;;4981686;28;20048;-79
2024/01/05 07:30:38;;;;;;;30.75;17.00;;;6.20;99.90;;;;;;4994527;28;20046;-79
2024/01/05 07:33:04;;;;;;;32.20;16.45;;;5.90;99.90;;;;;;4998654;28;20078;-79
2024/01/05 07:35:29;;;;;;;29.20;17.02;;;5.90;99.90;;;;;;5003272;28;20099;-78
2024/01/05 07:37:55;;;;;;;28.38;16.10;;;5.90;99.90;;;;;;5013299;28;20045;-78
2024/01/05 07:40:20;;;;;;;27.73;15.85;;;5.90;99.90;;;;;;5000613;28;20037;-79
2024/01/05 07:42:46;;;;;;;33.05;15.60;;;6.00;99.90;;;;;;5008594;28;20083;-79
2024/01/05 07:45:12;;;;;;;29.02;15.20;;;5.90;99.90;;;;;;5016264;28;20129;-79
2024/01/05 07:47:37;;;;;;;26.25;15.43;;;6.00;99.90;;;;;;4991453;28;20148;-77
2024/01/05 07:50:03;;;;;;;30.90;14.95;;;6.00;99.90;;;;;;5008171;28;20042;-78
2024/01/05 07:52:29;;;;;;;28.83;14.70;;;6.00;99.90;;;;;;5005123;28;20038;-78
2024/01/05 07:54:55;;;;;;;25.48;14.05;;;6.10;99.90;;;;;;5002359;28;20125;-78
2024/01/05 07:57:21;;;;;;;27.05;14.38;;;6.10;99.90;;;;;;4995070;28;20049;-78
2024/01/05 07:59:46;;;;;;;30.83;15.38;;;6.10;99.90;;;;;;4997159;28;20034;-78
2024/01/05 08:02:12;;;;;;;29.77;15.20;;;6.10;99.90;;;;;;5002888;28;20068;-77
2024/01/05 08:04:38;;;;;;;31.90;16.13;;;6.10;99.90;;;;;;4997361;28;20061;-78
2024/01/05 08:07:03;;;;;;;32.22;15.77;;;6.10;99.90;;;;;;5023365;28;20411;-78
2024/01/05 08:09:29;;;;;;;29.80;15.55;;;6.10;99.90;;;;;;5015325;28;20458;-78
2024/01/05 08:11:54;;;;;;;28.73;15.85;;;6.20;99.90;;;;;;4997031;28;20046;-78
2024/01/05 08:14:20;;;;;;;29.17;15.10;;;6.20;99.90;;;;;;5010523;28;20469;-78
2024/01/05 08:16:45;;;;;;;29.80;14.70;;;6.20;99.90;;;;;;5017794;28;20133;-78
2024/01/05 08:19:11;;;;;;;28.63;15.07;;;6.20;99.90;;;;;;5008390;28;20041;-78
2024/01/05 08:21:37;;;;;;;28.70;15.23;;;6.20;99.90;;;;;;5006945;28;20050;-78
2024/01/05 08:24:03;;;;;;;34.28;16.63;;;6.20;99.90;;;;;;5012397;28;20072;-78
2024/01/05 08:26:28;;;;;;;36.40;18.27;;;6.20;99.90;;;;;;5012747;28;20056;-77
2024/01/05 08:28:54;;;;;;;47.88;23.02;;;6.20;99.90;;;;;;4998035;28;20544;-78
2024/01/05 08:31:19;;;;;;;37.85;20.48;;;6.20;99.90;;;;;;4998674;28;20497;-78
2024/01/05 08:33:45;;;;;;;32.90;18.13;;;6.20;99.90;;;;;;4999913;28;20065;-77
2024/01/05 08:36:11;;;;;;;30.90;16.63;;;6.30;99.90;;;;;;5005456;28;20037;-77
2024/01/05 08:38:37;;;;;;;32.53;15.32;;;6.30;99.90;;;;;;5008767;28;20108;-78
2024/01/05 08:41:02;;;;;;;29.50;15.15;;;6.30;99.90;;;;;;5009239;28;20404;-78
2024/01/05 08:43:28;;;;;;;31.25;15.55;;;6.40;99.90;;;;;;4999813;28;20124;-78
2024/01/05 08:45:53;;;;;;;32.20;15.80;;;6.30;99.90;;;;;;4999763;28;20045;-78
2024/01/05 08:48:19;;;;;;;33.22;16.45;;;6.30;99.90;;;;;;4985128;28;20137;-79
2024/01/05 08:50:45;;;;;;;34.25;15.80;;;6.30;99.90;;;;;;5006102;28;20165;-78
2024/01/05 08:53:11;;;;;;;30.13;14.98;;;6.30;99.90;;;;;;5009345;28;20039;-78
2024/01/05 08:55:37;;;;;;;29.73;15.60;;;6.40;99.90;;;;;;5017973;28;20456;-78
2024/01/05 08:58:04;;;;;;;33.78;15.57;;;6.40;99.90;;;;;;5003412;28;20039;-77
2024/01/05 09:00:29;;;;;;;39.15;18.27;;;6.30;99.90;;;;;;5005411;28;20046;-78
2024/01/05 09:02:55;;;;;;;34.88;17.00;;;6.40;99.90;;;;;;4990165;28;20128;-78
2024/01/05 09:05:21;;;;;;;34.53;16.17;;;6.40;99.90;;;;;;4996825;28;20049;-77
2024/01/05 09:07:48;;;;;;;33.30;16.17;;;6.40;99.90;;;;;;5006238;28;20027;-79
2024/01/05 09:10:14;;;;;;;29.83;13.07;;;6.40;99.90;;;;;;5009425;28;20091;-79
2024/01/05 09:12:40;;;;;;;25.70;11.48;;;6.40;99.90;;;;;;5003433;28;20076;-79
2024/01/05 09:15:07;;;;;;;11.18;5.45;;;6.50;99.90;;;;;;5000169;28;20658;-78
2024/01/05 09:17:33;;;;;;;8.20;3.58;;;6.50;99.90;;;;;;5000213;28;20157;-78
2024/01/05 09:19:59;;;;;;;7.10;3.08;;;6.50;99.90;;;;;;5012760;28;20566;-79
2024/01/05 09:22:25;;;;;;;8.48;2.58;;;6.60;99.90;;;;;;5013103;28;20068;-78
2024/01/05 09:24:50;;;;;;;7.70;2.40;;;6.60;99.90;;;;;;5010257;28;20107;-79
2024/01/05 09:27:16;;;;;;;9.45;2.35;;;6.70;99.90;;;;;;5007034;28;20042;-78
2024/01/05 09:29:41;;;;;;;7.40;2.40;;;6.70;99.90;;;;;;5028617;28;20060;-78
2024/01/05 09:32:07;;;;;;;6.70;2.03;;;6.70;99.90;;;;;;5013161;28;20053;-78
2024/01/05 09:34:32;;;;;;;10.13;2.80;;;6.70;99.90;;;;;;5028101;28;20041;-79
2024/01/05 09:36:58;;;;;;;7.65;2.60;;;6.70;99.90;;;;;;5012141;28;20077;-79
2024/01/05 09:39:24;;;;;;;4.80;2.40;;;6.70;99.90;;;;;;5014531;28;20261;-79
2024/01/05 09:41:50;;;;;;;10.93;2.30;;;6.70;99.90;;;;;;5014720;28;20078;-79
2024/01/05 09:44:16;;;;;;;9.43;2.42;;;6.80;99.90;;;;;;5006073;28;20472;-78
2024/01/05 09:46:43;;;;;;;11.27;2.28;;;6.80;99.90;;;;;;5002719;28;20053;-78
2024/01/05 09:49:09;;;;;;;10.45;2.35;;;6.80;99.90;;;;;;5009972;28;20046;-78
2024/01/05 09:51:35;;;;;;;6.13;1.92;;;6.80;99.90;;;;;;5013389;28;20042;-78
2024/01/05 09:54:02;;;;;;;5.60;2.10;;;6.80;99.90;;;;;;5016809;28;20057;-79
2024/01/05 09:56:28;;;;;;;6.68;2.47;;;6.80;99.90;;;;;;5010111;28;20038;-78
2024/01/05 09:58:55;;;;;;;6.22;2.00;;;6.90;99.90;;;;;;5008601;28;20037;-78
2024/01/05 10:01:25;;;;;;;7.60;2.38;;;6.90;99.90;;;;;;5005743;28;20045;-79
2024/01/05 10:04:03;;;;;;;7.10;2.55;;;6.90;99.90;;;;;;5003718;28;20656;-80
2024/01/05 10:06:30;;;;;;;12.85;4.53;;;6.90;99.90;;;;;;5017948;28;20045;-79
2024/01/05 10:09:00;;;;;;;7.90;2.95;;;6.90;99.90;;;;;;5024655;28;20046;-79
2024/01/05 10:11:34;;;;;;;8.35;3.22;;;6.90;99.90;;;;;;5014356;28;20076;-79
2024/01/05 10:14:03;;;;;;;8.52;3.10;;;6.90;99.90;;;;;;5009921;28;20068;-80
2024/01/05 10:16:39;;;;;;;6.18;2.47;;;6.90;99.90;;;;;;4998653;28;20444;-79
2024/01/05 10:19:19;;;;;;;8.05;2.53;;;7.00;99.90;;;;;;5011488;28;20037;-80
2024/01/05 10:21:48;;;;;;;9.52;3.30;;;7.00;99.90;;;;;;5009742;28;20038;-80
2024/01/05 10:24:15;;;;;;;5.82;2.95;;;7.00;99.90;;;;;;5026385;28;20038;-80
2024/01/05 10:26:41;;;;;;;7.53;2.42;;;7.00;99.90;;;;;;5019599;28;20042;-79
2024/01/05 10:29:15;;;;;;;4.25;1.95;;;7.00;99.90;;;;;;5003773;28;20113;-79
2024/01/05 10:31:41;;;;;;;13.32;1.95;;;7.00;99.90;;;;;;5015414;28;20038;-79
2024/01/05 10:34:08;;;;;;;5.20;1.70;;;7.00;99.90;;;;;;5023464;28;20514;-79
2024/01/05 10:36:34;;;;;;;5.88;1.65;;;7.00;99.90;;;;;;5010246;28;20038;-78
2024/01/05 10:39:00;;;;;;;5.93;1.83;;;7.10;99.90;;;;;;5003236;28;20125;-78
2024/01/05 10:41:28;;;;;;;6.00;2.63;;;7.00;99.90;;;;;;5006642;28;20050;-77
2024/01/05 10:43:55;;;;;;;4.88;1.67;;;7.00;99.90;;;;;;4999532;28;20043;-79
2024/01/05 10:46:21;;;;;;;6.55;1.50;;;7.00;99.90;;;;;;4998990;28;20122;-77
2024/01/05 10:48:47;;;;;;;3.80;1.52;;;7.00;99.90;;;;;;5008590;28;20061;-78
2024/01/05 10:51:19;;;;;;;5.97;1.38;;;7.00;99.90;;;;;;5005605;28;20039;-78
2024/01/05 10:53:46;;;;;;;3.13;1.60;;;7.00;99.90;;;;;;4997967;28;20046;-78
2024/01/05 10:56:13;;;;;;;4.47;1.20;;;6.90;99.90;;;;;;4996901;28;20046;-78
2024/01/05 10:58:39;;;;;;;2.45;1.30;;;6.90;99.90;;;;;;4996700;28;20092;-78
2024/01/05 11:01:06;;;;;;;2.78;1.27;;;6.90;99.90;;;;;;5024429;28;20439;-78
2024/01/05 11:03:37;;;;;;;3.50;1.33;;;6.90;99.90;;;;;;5004150;28;20420;-78
2024/01/05 11:06:08;;;;;;;3.05;1.30;;;6.90;99.90;;;;;;5004342;28;20085;-79
2024/01/05 11:08:57;;;;;;;4.10;1.30;;;6.90;99.90;;;;;;5023428;28;20129;-78
2024/01/05 11:11:28;;;;;;;2.03;1.27;;;6.90;99.90;;;;;;4998234;28;20566;-78
2024/01/05 11:14:13;;;;;;;4.10;1.20;;;6.90;99.90;;;;;;4984723;28;20042;-78
2024/01/05 11:17:00;;;;;;;1.73;1.13;;;6.90;99.90;;;;;;5002186;28;20076;-78
2024/01/05 11:20:03;;;;;;;2.50;1.35;;;6.90;99.90;;;;;;5028137;28;20128;-78
2024/01/05 11:22:34;;;;;;;2.90;1.30;;;6.80;99.90;;;;;;5013674;28;20045;-78
2024/01/05 11:25:00;;;;;;;3.05;1.20;;;6.80;99.90;;;;;;5017361;28;20530;-77
2024/01/05 11:27:33;;;;;;;3.45;1.20;;;6.80;99.90;;;;;;5009294;28;20541;-78
2024/01/05 11:30:00;;;;;;;1.23;1.00;;;6.80;99.90;;;;;;5014246;28;20034;-78
2024/01/05 11:32:42;;;;;;;2.80;1.17;;;6.80;99.90;;;;;;5009278;28;20046;-79
2024/01/05 11:35:17;;;;;;;3.20;1.70;;;6.80;99.90;;;;;;5006393;28;20058;-77
2024/01/05 11:37:51;;;;;;;2.33;1.38;;;6.80;99.90;;;;;;5031328;23;20045;-75
2024/01/05 11:40:25;;;;;;;2.50;1.75;;;6.80;99.90;;;;;;4998377;28;20518;-74
2024/01/05 11:42:52;;;;;;;2.67;1.50;;;6.80;99.90;;;;;;4998421;28;20042;-73
2024/01/05 11:45:46;;;;;;;3.40;1.27;;;6.80;99.90;;;;;;5013896;28;20049;-74
2024/01/05 11:48:33;;;;;;;2.63;1.00;;;6.80;99.90;;;;;;4985092;28;20038;-75
2024/01/05 11:51:02;;;;;;;0.80;0.80;;;6.80;99.90;;;;;;4982108;28;20137;-74
2024/01/05 11:53:29;;;;;;;2.35;0.80;;;6.80;99.90;;;;;;4994180;28;20494;-74
2024/01/05 11:55:56;;;;;;;0.80;0.70;;;6.70;99.90;;;;;;4976756;28;20038;-74
2024/01/05 11:58:35;;;;;;;0.98;0.70;;;6.70;99.90;;;;;;4975375;28;20422;-75
2024/01/05 12:01:03;;;;;;;2.50;0.77;;;7.00;99.90;;;;;;4988715;28;21503;-74
2024/01/05 12:03:30;;;;;;;1.52;0.80;;;6.60;99.90;;;;;;4990808;28;20060;-75
2024/01/05 12:06:06;;;;;;;2.28;1.10;;;6.60;99.90;;;;;;4999348;28;20045;-74
2024/01/05 12:08:33;;;;;;;1.73;1.08;;;6.60;99.90;;;;;;4986859;28;20043;-75
2024/01/05 12:11:08;;;;;;;3.95;0.82;;;7.60;99.90;;;;;;4990990;28;20042;-76
2024/01/05 12:13:36;;;;;;;1.42;0.90;;;6.70;99.90;;;;;;4974352;28;20070;-75
2024/01/05 12:16:07;;;;;;;1.52;0.82;;;6.70;99.90;;;;;;4977325;28;20410;-76
2024/01/05 12:18:44;;;;;;;1.73;0.90;;;6.60;99.90;;;;;;4966632;28;20049;-75
2024/01/05 12:21:13;;;;;;;1.17;0.90;;;6.70;99.90;;;;;;4972788;28;20037;-75
2024/01/05 12:23:39;;;;;;;1.95;1.10;;;6.90;99.90;;;;;;4987712;28;20035;-75
2024/01/05 12:26:09;;;;;;;2.30;1.52;;;6.80;99.90;;;;;;4990023;28;20042;-75
2024/01/05 12:28:39;;;;;;;5.93;1.70;;;6.70;99.90;;;;;;5007928;28;20173;-75
2024/01/05 12:31:07;;;;;;;2.63;1.38;;;6.70;99.90;;;;;;4989525;28;20050;-75
2024/01/05 12:33:35;;;;;;;3.60;1.50;;;6.80;99.90;;;;;;4982327;28;20131;-75
2024/01/05 12:36:01;;;;;;;4.95;1.50;;;6.70;99.90;;;;;;4981574;28;20087;-75
2024/01/05 12:38:30;;;;;;;1.92;1.38;;;7.40;99.90;;;;;;5002054;28;20050;-74
2024/01/05 12:41:18;;;;;;;2.13;1.48;;;6.80;99.90;;;;;;4977407;28;20042;-74
2024/01/05 12:43:53;;;;;;;6.68;1.70;;;6.80;99.90;;;;;;4963092;28;20711;-73